Time;durP1;ratioP1;P1;durP2;ratioP2;P2;SDS_P1;SDS_P2;PMS_P1;PMS_P2;Temp;Humidity;BMP_temperature;BMP_pressure;BME280_temperature;BME280_humidity;BME280_pressure;Samples;Min_cycle;Max_cycle;Signal;HPM_P1;HPM_P2
2024/01/01 00:00:00;;;;;;;114.97;72.40;;;;;;;;;;5068789;28;20194;-66
2024/01/01 00:02:27;;;;;;;16.20;12.10;;;;;;;;;;5073851;28;20247;-63
2024/01/01 00:04:56;;;;;;;15.33;10.90;;;;;;;;;;5070435;28;20209;-64
2024/01/01 00:07:23;;;;;;;15.50;10.93;;;;;;;;;;5072966;28;20888;-65
2024/01/01 00:09:51;;;;;;;17.47;11.40;;;;;;;;;;5068976;28;20229;-65
2024/01/01 00:12:18;;;;;;;16.27;10.40;;;;;;;;;;5060507;28;20221;-67
2024/01/01 00:14:46;;;;;;;17.97;11.77;;;;;;;;;;5059409;28;20214;-66
2024/01/01 00:17:13;;;;;;;15.10;10.37;;;;;;;;;;5068687;28;20659;-63
2024/01/01 00:19:42;;;;;;;15.43;10.40;;;;;;;;;;5062989;28;20209;-67
2024/01/01 00:22:09;;;;;;;15.07;9.17;;;;;;;;;;5070693;28;20663;-66
2024/01/01 00:24:36;;;;;;;16.90;9.60;;;;;;;;;;5066908;28;20902;-65
2024/01/01 00:27:04;;;;;;;11.23;8.13;;;;;;;;;;5063718;28;20275;-66
2024/01/01 00:29:31;;;;;;;12.53;8.90;;;;;;;;;;5074977;28;20252;-66
2024/01/01 00:32:05;;;;;;;9.67;7.53;;;;;;;;;;5088151;28;20216;-65
2024/01/01 00:34:33;;;;;;;13.50;8.27;;;;;;;;;;5065986;28;20208;-66
2024/01/01 00:37:00;;;;;;;13.07;7.43;;;;;;;;;;5070615;28;20317;-65
2024/01/01 00:39:27;;;;;;;10.70;7.47;;;;;;;;;;5072736;28;20210;-65
2024/01/01 00:41:55;;;;;;;10.10;7.03;;;;;;;;;;5069387;28;20205;-65
2024/01/01 00:44:22;;;;;;;9.03;6.87;;;;;;;;;;5067554;28;20204;-65
2024/01/01 00:46:49;;;;;;;10.77;7.63;;;;;;;;;;5067612;28;20232;-67
2024/01/01 00:49:16;;;;;;;10.23;7.17;;;;;;;;;;5069219;28;20205;-64
2024/01/01 00:51:44;;;;;;;11.20;7.57;;;;;;;;;;5069559;28;20205;-67
2024/01/01 00:54:11;;;;;;;11.20;7.17;;;;;;;;;;5072504;28;20205;-67
2024/01/01 00:56:39;;;;;;;10.87;7.97;;;;;;;;;;5072473;28;20232;-65
2024/01/01 00:59:06;;;;;;;12.37;7.73;;;;;;;;;;5054283;28;20213;-65
2024/01/01 01:01:34;;;;;;;10.40;7.60;;;;;;;;;;5070313;28;20283;-65
2024/01/01 01:04:02;;;;;;;11.73;7.47;;;;;;;;;;5066737;28;20209;-63
2024/01/01 01:06:30;;;;;;;13.23;8.13;;;;;;;;;;5065906;28;20241;-66
2024/01/01 01:08:57;;;;;;;14.50;8.70;;;;;;;;;;5051302;28;20348;-64
2024/01/01 01:11:25;;;;;;;11.30;8.23;;;;;;;;;;5069627;28;20193;-62
2024/01/01 01:13:52;;;;;;;11.47;7.60;;;;;;;;;;5068930;28;20205;-65
2024/01/01 01:16:19;;;;;;;12.77;8.23;;;;;;;;;;5069247;28;20236;-64
2024/01/01 01:18:47;;;;;;;12.43;7.93;;;;;;;;;;5052721;28;20230;-65
2024/01/01 01:21:14;;;;;;;12.13;7.97;;;;;;;;;;5068459;28;20201;-65
2024/01/01 01:23:43;;;;;;;15.70;9.10;;;;;;;;;;5051304;28;20202;-67
2024/01/01 01:26:10;;;;;;;12.93;8.57;;;;;;;;;;5073897;28;20213;-64
2024/01/01 01:28:37;;;;;;;13.60;8.23;;;;;;;;;;5063373;28;20614;-66
2024/01/01 01:31:05;;;;;;;12.77;8.30;;;;;;;;;;5069089;28;20861;-64
2024/01/01 01:33:32;;;;;;;12.50;7.97;;;;;;;;;;5060706;28;20209;-66
2024/01/01 01:36:00;;;;;;;15.37;7.80;;;;;;;;;;5066448;28;20209;-64
2024/01/01 01:38:28;;;;;;;11.43;8.33;;;;;;;;;;5056324;28;20268;-63
2024/01/01 01:40:55;;;;;;;13.10;7.87;;;;;;;;;;5050350;28;20655;-63
2024/01/01 01:43:24;;;;;;;11.50;7.60;;;;;;;;;;5069507;28;20204;-64
2024/01/01 01:45:52;;;;;;;12.77;7.63;;;;;;;;;;5029189;28;20241;-64
2024/01/01 01:48:19;;;;;;;11.50;7.47;;;;;;;;;;5063865;28;20275;-63
2024/01/01 01:50:49;;;;;;;11.33;7.37;;;;;;;;;;5066188;28;20197;-63
2024/01/01 01:53:23;;;;;;;9.77;7.27;;;;;;;;;;5049654;28;20248;-64
2024/01/01 01:55:54;;;;;;;12.40;7.43;;;;;;;;;;5068856;28;20280;-64
2024/01/01 01:58:21;;;;;;;13.37;7.97;;;;;;;;;;5048160;28;20224;-64
2024/01/01 02:00:50;;;;;;;14.37;8.20;;;;;;;;;;5060839;28;20202;-63
2024/01/01 02:03:18;;;;;;;9.47;6.90;;;;;;;;;;5059208;28;20284;-66
2024/01/01 02:05:46;;;;;;;11.97;8.20;;;;;;;;;;5060996;28;20279;-64
2024/01/01 02:08:14;;;;;;;12.57;8.17;;;;;;;;;;5065497;28;20217;-64
2024/01/01 02:10:41;;;;;;;15.20;8.00;;;;;;;;;;5048460;28;20201;-66
2024/01/01 02:13:23;;;;;;;14.77;8.93;;;;;;;;;;5065705;28;20229;-65
2024/01/01 02:15:50;;;;;;;13.63;8.43;;;;;;;;;;5072002;28;20273;-65
2024/01/01 02:18:17;;;;;;;13.20;8.67;;;;;;;;;;5070649;28;20217;-66
2024/01/01 02:20:45;;;;;;;13.20;8.63;;;;;;;;;;5068235;28;20212;-63
2024/01/01 02:23:16;;;;;;;13.93;8.83;;;;;;;;;;5061179;28;20275;-65
2024/01/01 02:25:43;;;;;;;17.27;10.33;;;;;;;;;;5065267;28;20272;-64
2024/01/01 02:28:11;;;;;;;14.50;8.97;;;;;;;;;;5047563;28;20225;-64
2024/01/01 02:30:38;;;;;;;16.90;9.90;;;;;;;;;;5065808;28;20256;-65
2024/01/01 02:33:07;;;;;;;16.87;9.63;;;;;;;;;;5068084;28;20307;-63
2024/01/01 02:35:35;;;;;;;14.43;9.67;;;;;;;;;;5070713;28;20202;-67
2024/01/01 02:38:04;;;;;;;14.00;9.60;;;;;;;;;;5047630;28;20232;-65
2024/01/01 02:40:33;;;;;;;15.30;9.53;;;;;;;;;;5064259;28;20213;-65
2024/01/01 02:43:01;;;;;;;18.27;9.70;;;;;;;;;;5067141;28;20229;-65
2024/01/01 02:45:29;;;;;;;17.67;9.43;;;;;;;;;;5065967;28;20256;-65
2024/01/01 02:47:57;;;;;;;16.23;9.67;;;;;;;;;;5067568;28;20286;-66
2024/01/01 02:50:25;;;;;;;18.87;10.07;;;;;;;;;;5071079;28;20224;-65
2024/01/01 02:52:52;;;;;;;14.53;9.53;;;;;;;;;;5063204;28;20667;-65
2024/01/01 02:55:20;;;;;;;14.47;9.50;;;;;;;;;;5071245;28;20264;-65
2024/01/01 02:57:48;;;;;;;15.23;9.97;;;;;;;;;;5072057;28;20224;-65
2024/01/01 03:00:15;;;;;;;16.00;9.57;;;;;;;;;;5076812;28;20601;-64
2024/01/01 03:02:43;;;;;;;14.90;9.40;;;;;;;;;;5066778;28;20209;-65
2024/01/01 03:05:10;;;;;;;13.53;8.70;;;;;;;;;;5064566;28;20710;-65
2024/01/01 03:07:38;;;;;;;15.10;8.27;;;;;;;;;;5067966;28;20790;-63
2024/01/01 03:10:06;;;;;;;13.60;7.97;;;;;;;;;;5061457;28;20208;-65
2024/01/01 03:12:33;;;;;;;17.73;7.70;;;;;;;;;;5066392;28;20212;-64
2024/01/01 03:15:02;;;;;;;12.53;7.73;;;;;;;;;;5058249;28;20195;-64
2024/01/01 03:17:30;;;;;;;17.80;7.87;;;;;;;;;;5071398;28;20224;-65
2024/01/01 03:19:58;;;;;;;10.47;6.57;;;;;;;;;;5066527;28;20225;-64
2024/01/01 03:22:25;;;;;;;11.70;7.33;;;;;;;;;;5071662;28;20252;-65
2024/01/01 03:24:53;;;;;;;12.07;7.10;;;;;;;;;;5048795;28;20214;-63
2024/01/01 03:27:20;;;;;;;13.53;6.90;;;;;;;;;;5056025;28;20236;-63
2024/01/01 03:29:48;;;;;;;11.97;6.97;;;;;;;;;;5051274;28;20647;-63
2024/01/01 03:32:15;;;;;;;8.90;6.57;;;;;;;;;;5068304;28;20209;-63
2024/01/01 03:34:43;;;;;;;11.67;6.43;;;;;;;;;;5062422;28;20206;-65
2024/01/01 03:37:10;;;;;;;10.57;6.67;;;;;;;;;;5065430;28;20248;-64
2024/01/01 03:39:38;;;;;;;9.73;6.60;;;;;;;;;;5071245;28;20202;-64
2024/01/01 03:42:05;;;;;;;9.90;6.03;;;;;;;;;;5070447;28;20214;-64
2024/01/01 03:44:32;;;;;;;10.20;6.20;;;;;;;;;;5071390;28;20239;-65
2024/01/01 03:47:00;;;;;;;9.87;6.37;;;;;;;;;;5070307;28;20280;-63
2024/01/01 03:49:27;;;;;;;8.97;6.00;;;;;;;;;;5050081;28;20310;-66
2024/01/01 03:51:54;;;;;;;8.37;6.20;;;;;;;;;;5068874;28;20714;-65
2024/01/01 03:54:22;;;;;;;12.17;6.30;;;;;;;;;;5067146;28;20209;-64
2024/01/01 03:56:49;;;;;;;11.83;6.63;;;;;;;;;;5065893;28;20317;-65
2024/01/01 03:59:17;;;;;;;12.87;6.30;;;;;;;;;;5063165;28;20263;-64
2024/01/01 04:01:44;;;;;;;11.13;6.27;;;;;;;;;;5048179;28;20833;-64
2024/01/01 04:04:12;;;;;;;10.37;5.47;;;;;;;;;;5067539;28;20208;-66
2024/01/01 04:06:39;;;;;;;11.17;5.87;;;;;;;;;;5062711;28;20221;-63
2024/01/01 04:09:06;;;;;;;13.23;6.30;;;;;;;;;;5066376;28;20651;-65
2024/01/01 04:11:34;;;;;;;12.83;6.10;;;;;;;;;;5070391;28;20211;-63
2024/01/01 04:14:02;;;;;;;11.67;5.97;;;;;;;;;;5063462;28;20248;-64
2024/01/01 04:16:30;;;;;;;8.87;6.17;;;;;;;;;;5066004;28;20197;-66
2024/01/01 04:18:58;;;;;;;9.33;5.87;;;;;;;;;;5069495;28;20221;-63
2024/01/01 04:21:25;;;;;;;12.83;6.20;;;;;;;;;;5052937;28;20197;-65
2024/01/01 04:23:55;;;;;;;8.47;5.60;;;;;;;;;;5068416;28;20202;-65
2024/01/01 04:26:23;;;;;;;9.00;5.70;;;;;;;;;;5067113;28;20643;-64
2024/01/01 04:28:50;;;;;;;11.17;5.57;;;;;;;;;;5070785;28;20926;-63
2024/01/01 04:31:17;;;;;;;8.97;5.90;;;;;;;;;;5071471;28;20672;-65
2024/01/01 04:33:45;;;;;;;9.50;6.00;;;;;;;;;;5065572;28;20201;-64
2024/01/01 04:36:12;;;;;;;8.13;4.03;;;;;;;;;;5068606;28;20590;-63
2024/01/01 04:38:40;;;;;;;8.07;4.87;;;;;;;;;;5063888;28;20218;-65
2024/01/01 04:41:09;;;;;;;7.93;4.77;;;;;;;;;;5069700;28;20209;-66
2024/01/01 04:43:38;;;;;;;8.13;4.63;;;;;;;;;;5065060;28;20248;-63
2024/01/01 04:46:06;;;;;;;8.17;4.20;;;;;;;;;;5064492;28;20220;-63
2024/01/01 04:48:34;;;;;;;5.73;4.00;;;;;;;;;;5066332;28;20232;-64
2024/01/01 04:51:01;;;;;;;6.50;3.80;;;;;;;;;;5068881;28;20659;-63
2024/01/01 04:53:29;;;;;;;5.77;4.40;;;;;;;;;;5066971;28;20687;-64
2024/01/01 04:55:56;;;;;;;6.43;3.70;;;;;;;;;;5064468;28;20655;-65
2024/01/01 04:58:23;;;;;;;5.53;3.77;;;;;;;;;;5071568;28;20245;-63
2024/01/01 05:00:51;;;;;;;4.53;3.37;;;;;;;;;;5067587;28;20241;-64
2024/01/01 05:03:18;;;;;;;7.87;3.90;;;;;;;;;;5061001;28;20292;-65
2024/01/01 05:05:45;;;;;;;5.67;3.30;;;;;;;;;;5062647;28;20198;-65
2024/01/01 05:08:13;;;;;;;6.57;3.33;;;;;;;;;;5067475;28;20236;-66
2024/01/01 05:10:40;;;;;;;3.90;3.13;;;;;;;;;;5059342;28;20779;-64
2024/01/01 05:13:09;;;;;;;6.00;3.23;;;;;;;;;;5066512;28;20198;-63
2024/01/01 05:15:38;;;;;;;5.77;3.00;;;;;;;;;;5064103;28;20205;-65
2024/01/01 05:18:05;;;;;;;8.40;3.27;;;;;;;;;;5081113;28;20224;-64
2024/01/01 05:20:33;;;;;;;5.17;3.17;;;;;;;;;;5073356;28;20758;-65
2024/01/01 05:23:01;;;;;;;6.00;2.90;;;;;;;;;;5062392;28;20247;-67
2024/01/01 05:25:28;;;;;;;3.23;2.57;;;;;;;;;;5072279;28;20895;-64
2024/01/01 05:27:56;;;;;;;4.47;2.60;;;;;;;;;;5075293;28;20312;-64
2024/01/01 05:30:27;;;;;;;5.97;2.73;;;;;;;;;;5069438;28;20204;-65
2024/01/01 05:32:54;;;;;;;6.33;2.60;;;;;;;;;;5071371;28;20201;-65
2024/01/01 05:35:22;;;;;;;4.63;2.60;;;;;;;;;;5068735;28;20207;-63
2024/01/01 05:37:49;;;;;;;6.33;2.77;;;;;;;;;;5063835;28;20312;-63
2024/01/01 05:40:17;;;;;;;4.53;2.80;;;;;;;;;;5063271;28;20209;-66
2024/01/01 05:42:44;;;;;;;6.00;2.97;;;;;;;;;;5063336;28;20234;-63
2024/01/01 05:45:11;;;;;;;4.77;2.87;;;;;;;;;;5071302;28;20579;-64
2024/01/01 05:47:39;;;;;;;5.27;2.53;;;;;;;;;;5069331;28;20272;-65
2024/01/01 05:50:07;;;;;;;5.73;3.00;;;;;;;;;;5068046;28;20297;-64
2024/01/01 05:52:35;;;;;;;5.77;3.17;;;;;;;;;;5065626;28;20194;-65
2024/01/01 05:55:02;;;;;;;6.50;2.77;;;;;;;;;;5048245;28;20205;-64
2024/01/01 05:57:29;;;;;;;7.20;2.83;;;;;;;;;;5067245;28;20256;-67
2024/01/01 05:59:57;;;;;;;6.23;2.60;;;;;;;;;;5065356;28;20205;-65
2024/01/01 06:02:24;;;;;;;4.30;2.43;;;;;;;;;;5069539;28;20255;-64
2024/01/01 06:04:51;;;;;;;7.70;2.83;;;;;;;;;;5063632;28;20298;-65
2024/01/01 06:07:19;;;;;;;4.53;2.60;;;;;;;;;;5059296;28;20253;-65
2024/01/01 06:09:47;;;;;;;5.30;2.50;;;;;;;;;;5060926;28;20202;-65
2024/01/01 06:12:14;;;;;;;3.93;2.37;;;;;;;;;;5064877;28;20194;-65
2024/01/01 06:14:42;;;;;;;4.87;2.63;;;;;;;;;;5068687;28;20688;-63
2024/01/01 06:17:09;;;;;;;4.70;2.40;;;;;;;;;;5064172;28;20283;-62
2024/01/01 06:19:37;;;;;;;3.50;2.50;;;;;;;;;;5069421;28;20240;-65
2024/01/01 06:22:04;;;;;;;2.50;2.20;;;;;;;;;;5069064;28;20208;-66
2024/01/01 06:24:32;;;;;;;4.43;2.37;;;;;;;;;;5063983;28;20275;-64
2024/01/01 06:26:59;;;;;;;5.50;2.50;;;;;;;;;;5046488;28;20274;-63
2024/01/01 06:29:27;;;;;;;9.57;2.40;;;;;;;;;;5065796;28;20292;-65
2024/01/01 06:31:54;;;;;;;3.83;2.40;;;;;;;;;;5066411;28;20208;-64
2024/01/01 06:34:22;;;;;;;5.00;2.40;;;;;;;;;;5063312;28;20234;-64
2024/01/01 06:36:49;;;;;;;7.13;2.50;;;;;;;;;;5060553;28;20636;-65
2024/01/01 06:39:17;;;;;;;5.57;2.60;;;;;;;;;;5063164;28;20200;-63
2024/01/01 06:41:45;;;;;;;5.13;2.20;;;;;;;;;;5064167;28;20213;-65
2024/01/01 06:44:12;;;;;;;4.50;1.90;;;;;;;;;;5065127;28;20738;-63
2024/01/01 06:46:40;;;;;;;4.87;2.33;;;;;;;;;;5046704;28;20292;-66
2024/01/01 06:49:07;;;;;;;3.77;2.10;;;;;;;;;;5059125;28;20248;-64
2024/01/01 06:51:34;;;;;;;4.17;2.00;;;;;;;;;;5063199;28;20206;-63
2024/01/01 06:54:02;;;;;;;2.37;2.07;;;;;;;;;;5062860;28;20198;-64
2024/01/01 06:56:29;;;;;;;3.73;2.03;;;;;;;;;;5072372;28;20201;-66
2024/01/01 06:58:56;;;;;;;5.60;2.33;;;;;;;;;;5067458;28;20308;-64
2024/01/01 07:01:24;;;;;;;2.90;2.10;;;;;;;;;;5060231;28;20790;-63
2024/01/01 07:03:51;;;;;;;4.30;1.90;;;;;;;;;;5044408;28;20264;-66
2024/01/01 07:06:19;;;;;;;5.10;2.30;;;;;;;;;;5065899;28;20213;-64
2024/01/01 07:08:46;;;;;;;3.00;2.10;;;;;;;;;;5048120;28;20225;-63
2024/01/01 07:11:13;;;;;;;3.93;2.30;;;;;;;;;;5067161;28;20210;-65
2024/01/01 07:13:41;;;;;;;4.30;1.80;;;;;;;;;;5069349;28;20201;-64
2024/01/01 07:16:09;;;;;;;5.13;2.00;;;;;;;;;;5062568;28;20190;-63
2024/01/01 07:18:37;;;;;;;6.10;2.70;;;;;;;;;;5072308;28;20272;-63
2024/01/01 07:21:06;;;;;;;4.40;2.53;;;;;;;;;;5067450;28;20206;-65
2024/01/01 07:23:34;;;;;;;5.57;2.17;;;;;;;;;;5049833;28;20216;-65
2024/01/01 07:26:01;;;;;;;6.90;2.30;;;;;;;;;;5069541;28;20221;-63
2024/01/01 07:28:28;;;;;;;5.00;2.50;;;;;;;;;;5051462;28;20762;-66
2024/01/01 07:30:57;;;;;;;8.07;2.40;;;;;;;;;;5069826;28;20239;-65
2024/01/01 07:33:25;;;;;;;6.80;2.20;;;;;;;;;;5071996;28;20303;-66
2024/01/01 07:35:52;;;;;;;4.50;2.13;;;;;;;;;;5068783;28;20259;-65
2024/01/01 07:38:19;;;;;;;5.00;2.40;;;;;;;;;;5069103;28;20243;-63
2024/01/01 07:40:47;;;;;;;4.40;2.27;;;;;;;;;;5069355;28;20256;-64
2024/01/01 07:43:14;;;;;;;7.80;2.20;;;;;;;;;;5066908;28;20202;-65
2024/01/01 07:45:41;;;;;;;7.27;2.37;;;;;;;;;;5067793;28;20212;-66
2024/01/01 07:48:09;;;;;;;3.57;2.43;;;;;;;;;;5067494;28;20741;-64
2024/01/01 07:50:38;;;;;;;4.73;2.27;;;;;;;;;;5049100;28;20565;-65
2024/01/01 07:53:06;;;;;;;3.90;2.20;;;;;;;;;;5065957;28;20261;-65
2024/01/01 07:55:33;;;;;;;8.40;2.63;;;;;;;;;;5066796;28;20206;-65
2024/01/01 07:58:00;;;;;;;6.57;2.30;;;;;;;;;;5061899;28;20272;-65
2024/01/01 08:00:28;;;;;;;5.23;2.20;;;;;;;;;;5047601;28;20205;-64
2024/01/01 08:02:55;;;;;;;8.40;2.33;;;;;;;;;;5066438;28;20201;-64
2024/01/01 08:05:23;;;;;;;7.27;2.23;;;;;;;;;;5044119;28;20289;-65
2024/01/01 08:07:50;;;;;;;6.13;2.47;;;;;;;;;;5064758;28;20368;-66
2024/01/01 08:10:18;;;;;;;7.70;2.13;;;;;;;;;;5069655;28;20206;-65
2024/01/01 08:12:45;;;;;;;5.83;2.27;;;;;;;;;;5063239;28;20210;-64
2024/01/01 08:15:13;;;;;;;6.23;2.23;;;;;;;;;;5063743;28;20201;-62
2024/01/01 08:17:40;;;;;;;6.07;2.60;;;;;;;;;;5063558;28;20267;-65
2024/01/01 08:20:08;;;;;;;4.13;2.10;;;;;;;;;;5044016;28;20201;-63
2024/01/01 08:22:36;;;;;;;8.17;2.50;;;;;;;;;;5063602;28;20788;-63
2024/01/01 08:25:03;;;;;;;5.50;2.10;;;;;;;;;;5068097;28;21023;-63
2024/01/01 08:27:32;;;;;;;2.90;2.00;;;;;;;;;;5044699;28;20240;-65
2024/01/01 08:30:03;;;;;;;6.87;2.57;;;;;;;;;;5064387;28;20205;-64
2024/01/01 08:32:30;;;;;;;6.30;2.30;;;;;;;;;;5066976;28;20204;-64
2024/01/01 08:34:58;;;;;;;5.43;2.43;;;;;;;;;;5050073;28;20202;-66
2024/01/01 08:37:25;;;;;;;4.50;2.20;;;;;;;;;;5063856;28;20217;-65
2024/01/01 08:39:52;;;;;;;4.50;1.90;;;;;;;;;;5066384;28;20231;-65
2024/01/01 08:42:20;;;;;;;7.43;2.13;;;;;;;;;;5078789;28;20200;-66
2024/01/01 08:44:47;;;;;;;2.50;1.80;;;;;;;;;;5066910;28;20671;-65
2024/01/01 08:47:15;;;;;;;4.63;1.63;;;;;;;;;;5066256;28;20772;-63
2024/01/01 08:49:43;;;;;;;6.63;1.93;;;;;;;;;;5068502;28;20222;-64
2024/01/01 08:52:10;;;;;;;8.93;1.90;;;;;;;;;;5074361;28;20230;-65
2024/01/01 08:54:38;;;;;;;3.80;2.00;;;;;;;;;;5070281;28;20201;-63
2024/01/01 08:57:05;;;;;;;3.10;1.90;;;;;;;;;;5056755;28;20315;-63
2024/01/01 08:59:32;;;;;;;2.50;1.70;;;;;;;;;;5066294;28;20205;-65
2024/01/01 09:02:00;;;;;;;3.50;2.00;;;;;;;;;;5062393;28;20664;-65
2024/01/01 09:04:27;;;;;;;4.00;1.90;;;;;;;;;;5067101;28;20264;-65
2024/01/01 09:06:54;;;;;;;4.73;2.10;;;;;;;;;;5062332;28;20210;-63
2024/01/01 09:09:22;;;;;;;2.77;1.57;;;;;;;;;;5065645;28;20237;-65
2024/01/01 09:11:49;;;;;;;2.60;1.60;;;;;;;;;;5062404;28;20213;-63
2024/01/01 09:14:16;;;;;;;3.67;1.53;;;;;;;;;;5065469;28;20202;-66
2024/01/01 09:16:44;;;;;;;2.77;1.67;;;;;;;;;;5063772;28;20228;-63
2024/01/01 09:19:11;;;;;;;4.63;2.23;;;;;;;;;;5063316;28;20288;-65
2024/01/01 09:21:39;;;;;;;3.30;1.50;;;;;;;;;;5070097;28;20259;-65
2024/01/01 09:24:09;;;;;;;1.80;1.70;;;;;;;;;;5069181;28;20429;-64
2024/01/01 09:26:40;;;;;;;1.93;1.60;;;;;;;;;;5063673;28;20308;-64
2024/01/01 09:29:07;;;;;;;4.13;1.67;;;;;;;;;;5062895;28;20217;-64
2024/01/01 09:31:35;;;;;;;3.17;1.60;;;;;;;;;;5060131;28;20197;-65
2024/01/01 09:34:06;;;;;;;1.60;1.40;;;;;;;;;;5063492;28;20240;-65
2024/01/01 09:36:34;;;;;;;2.60;1.60;;;;;;;;;;5059429;28;20209;-64
2024/01/01 09:39:15;;;;;;;5.83;3.83;;;;;;;;;;5063231;28;20208;-63
2024/01/01 09:41:42;;;;;;;3.27;1.77;;;;;;;;;;5056706;28;20666;-65
2024/01/01 09:44:11;;;;;;;2.40;1.60;;;;;;;;;;5037839;28;20214;-63
2024/01/01 09:46:40;;;;;;;3.20;1.37;;;;;;;;;;5053713;28;20297;-64
2024/01/01 09:49:08;;;;;;;3.97;1.30;;;;;;;;;;5058007;28;20229;-64
2024/01/01 09:51:38;;;;;;;3.43;1.40;;;;;;;;;;5059974;28;20201;-63
2024/01/01 09:54:07;;;;;;;1.60;1.30;;;;;;;;;;5057588;28;20940;-65
2024/01/01 09:56:34;;;;;;;3.73;1.50;;;;;;;;;;5052715;28;20547;-65
2024/01/01 09:59:02;;;;;;;4.70;1.77;;;;;;;;;;5050479;28;20227;-66
2024/01/01 10:01:31;;;;;;;1.53;1.33;;;;;;;;;;5060270;28;20205;-63
2024/01/01 10:04:03;;;;;;;2.57;1.63;;;;;;;;;;5056649;28;20207;-65
2024/01/01 10:06:33;;;;;;;4.00;2.10;;;;;;;;;;5053447;28;20647;-64
2024/01/01 10:09:09;;;;;;;4.37;1.90;;;;;;;;;;5049866;28;21836;-63
2024/01/01 10:11:42;;;;;;;5.07;1.60;;;;;;;;;;5037713;28;20189;-65
2024/01/01 10:14:11;;;;;;;1.40;1.30;;;;;;;;;;5055558;28;20198;-66
2024/01/01 10:16:39;;;;;;;3.40;1.60;;;;;;;;;;5051519;28;20213;-65
2024/01/01 10:19:07;;;;;;;3.03;1.90;;;;;;;;;;5054291;28;20213;-66
2024/01/01 10:21:36;;;;;;;4.63;1.63;;;;;;;;;;5054936;28;20209;-66
2024/01/01 10:24:13;;;;;;;5.07;1.70;;;;;;;;;;5057476;28;20220;-63
2024/01/01 10:27:00;;;;;;;4.33;1.60;;;;;;;;;;5044215;28;20286;-68
2024/01/01 10:29:27;;;;;;;1.80;1.63;;;;;;;;;;5062318;28;20221;-66
2024/01/01 10:31:55;;;;;;;3.43;1.67;;;;;;;;;;5055578;28;20207;-68
2024/01/01 10:34:23;;;;;;;1.47;1.30;;;;;;;;;;5053872;28;20818;-64
2024/01/01 10:36:51;;;;;;;2.47;1.67;;;;;;;;;;5058560;28;20214;-65
2024/01/01 10:39:18;;;;;;;2.50;1.40;;;;;;;;;;5061577;28;20580;-64
2024/01/01 10:41:49;;;;;;;3.77;1.53;;;;;;;;;;5058893;28;20222;-66
2024/01/01 10:44:16;;;;;;;3.70;1.50;;;;;;;;;;5058044;28;20210;-66
2024/01/01 10:46:48;;;;;;;3.30;1.70;;;;;;;;;;5051637;28;20225;-66
2024/01/01 10:49:27;;;;;;;2.17;1.77;;;;;;;;;;5060067;28;20469;-64
2024/01/01 10:52:13;;;;;;;4.03;2.33;;;;;;;;;;5057143;28;20289;-66
2024/01/01 10:54:40;;;;;;;8.10;2.30;;;;;;;;;;5052025;28;20209;-65
2024/01/01 10:57:26;;;;;;;5.13;3.17;;;;;;;;;;5057508;28;20802;-66
2024/01/01 11:00:01;;;;;;;4.67;1.63;;;;;;;;;;5059392;28;20675;-65
2024/01/01 11:02:28;;;;;;;4.83;2.57;;;;;;;;;;5058024;28;20209;-67
2024/01/01 11:05:06;;;;;;;4.73;1.57;;;;;;;;;;5059869;28;20788;-67
2024/01/01 11:07:52;;;;;;;4.53;1.80;;;;;;;;;;5054877;28;20232;-67
2024/01/01 11:10:35;;;;;;;4.30;1.77;;;;;;;;;;5041157;28;20288;-65
2024/01/01 11:13:09;;;;;;;6.50;2.20;;;;;;;;;;5064664;28;20200;-64
2024/01/01 11:15:46;;;;;;;6.30;2.83;;;;;;;;;;5058480;28;20213;-64
2024/01/01 11:18:14;;;;;;;5.73;2.20;;;;;;;;;;5059350;28;20619;-68
2024/01/01 11:21:06;;;;;;;3.27;1.70;;;;;;;;;;5060963;28;20202;-66
2024/01/01 11:23:40;;;;;;;5.40;1.80;;;;;;;;;;5061111;28;20208;-66
2024/01/01 11:26:23;;;;;;;4.63;2.10;;;;;;;;;;5063413;28;20204;-64
2024/01/01 11:28:51;;;;;;;3.67;2.50;;;;;;;;;;5059695;28;21177;-65
2024/01/01 11:31:19;;;;;;;4.77;3.97;;;;;;;;;;5068366;28;20201;-65
2024/01/01 11:33:46;;;;;;;9.53;4.57;;;;;;;;;;5082657;28;20202;-64
2024/01/01 11:36:14;;;;;;;6.57;2.63;;;;;;;;;;5058796;28;20225;-66
2024/01/01 11:38:41;;;;;;;5.73;3.23;;;;;;;;;;5051731;28;20283;-64
2024/01/01 11:41:08;;;;;;;7.93;4.00;;;;;;;;;;5066427;28;20538;-64
2024/01/01 11:43:36;;;;;;;10.53;5.53;;;;;;;;;;5073775;28;20212;-65
2024/01/01 11:46:03;;;;;;;7.60;3.77;;;;;;;;;;5058496;28;20197;-63
2024/01/01 11:48:31;;;;;;;5.27;3.50;;;;;;;;;;5065824;28;20228;-66
2024/01/01 11:51:07;;;;;;;5.10;2.77;;;;;;;;;;5062900;28;20703;-64
2024/01/01 11:53:35;;;;;;;4.80;3.13;;;;;;;;;;5042628;28;20202;-66
2024/01/01 11:56:06;;;;;;;4.27;1.80;;;;;;;;;;5060784;28;20217;-64
2024/01/01 11:58:34;;;;;;;5.03;2.20;;;;;;;;;;5063908;28;20224;-65
2024/01/01 12:01:01;;;;;;;5.63;2.23;;;;;;;;;;5056401;28;20202;-66
2024/01/01 12:03:29;;;;;;;4.60;1.63;;;;;;;;;;5060822;28;20319;-64
2024/01/01 12:06:03;;;;;;;10.80;2.03;;;;;;;;;;5063030;28;20209;-66
2024/01/01 12:08:31;;;;;;;6.60;1.77;;;;;;;;;;5063776;28;20229;-65
2024/01/01 12:10:59;;;;;;;4.37;1.43;;;;;;;;;;5042078;28;20674;-63
2024/01/01 12:13:27;;;;;;;7.07;1.67;;;;;;;;;;5063660;28;20592;-66
2024/01/01 12:15:54;;;;;;;4.93;1.80;;;;;;;;;;5055978;28;20202;-63
2024/01/01 12:18:21;;;;;;;5.60;1.80;;;;;;;;;;5056248;28;20225;-66
2024/01/01 12:20:49;;;;;;;4.63;1.90;;;;;;;;;;5054822;28;20210;-64
2024/01/01 12:23:21;;;;;;;4.37;1.67;;;;;;;;;;5063126;28;20206;-65
2024/01/01 12:26:01;;;;;;;8.43;1.70;;;;;;;;;;5058928;28;20194;-65
2024/01/01 12:28:28;;;;;;;7.97;1.60;;;;;;;;;;5043584;28;20324;-65
2024/01/01 12:30:56;;;;;;;3.47;1.40;;;;;;;;;;5053479;28;20259;-64
2024/01/01 12:33:23;;;;;;;5.23;1.70;;;;;;;;;;5042408;28;20233;-66
2024/01/01 12:35:52;;;;;;;4.33;1.67;;;;;;;;;;5056903;28;20197;-65
2024/01/01 12:38:19;;;;;;;35.93;16.07;;;;;;;;;;5063396;28;20220;-66
2024/01/01 12:40:47;;;;;;;6.53;2.17;;;;;;;;;;5056217;28;20213;-66
2024/01/01 12:43:14;;;;;;;5.53;1.50;;;;;;;;;;5058744;28;20284;-63
2024/01/01 12:45:42;;;;;;;7.23;1.70;;;;;;;;;;5057415;28;20592;-64
2024/01/01 12:48:09;;;;;;;7.97;1.70;;;;;;;;;;5065071;28;20291;-63
2024/01/01 12:50:37;;;;;;;3.93;1.40;;;;;;;;;;5061233;28;20789;-65
2024/01/01 12:53:04;;;;;;;4.03;1.50;;;;;;;;;;5067197;28;20206;-65
2024/01/01 12:55:32;;;;;;;4.23;1.50;;;;;;;;;;5040878;28;20289;-65
2024/01/01 12:57:59;;;;;;;3.97;1.63;;;;;;;;;;5062499;28;20283;-63
2024/01/01 13:00:27;;;;;;;3.93;1.80;;;;;;;;;;5061210;28;20205;-66
2024/01/01 13:02:54;;;;;;;3.73;2.47;;;;;;;;;;5056623;28;20205;-66
2024/01/01 13:05:22;;;;;;;5.57;2.70;;;;;;;;;;5067669;28;20213;-63
2024/01/01 13:07:50;;;;;;;4.53;1.70;;;;;;;;;;5059806;28;20256;-65
2024/01/01 13:10:17;;;;;;;4.37;1.60;;;;;;;;;;5044458;28;20236;-65
2024/01/01 13:12:46;;;;;;;7.53;1.67;;;;;;;;;;5041047;28;20323;-64
2024/01/01 13:15:14;;;;;;;4.10;1.80;;;;;;;;;;5064142;28;20251;-66
2024/01/01 13:17:41;;;;;;;4.97;1.70;;;;;;;;;;5061492;28;20213;-66
2024/01/01 13:20:12;;;;;;;4.70;2.47;;;;;;;;;;5063845;28;20220;-65
2024/01/01 13:22:39;;;;;;;4.10;1.80;;;;;;;;;;5053913;28;20205;-64
2024/01/01 13:25:07;;;;;;;5.33;1.53;;;;;;;;;;5058146;28;20212;-65
2024/01/01 13:27:34;;;;;;;3.27;1.60;;;;;;;;;;5058866;28;20224;-65
2024/01/01 13:30:02;;;;;;;4.07;1.60;;;;;;;;;;5039859;28;20364;-67
2024/01/01 13:32:30;;;;;;;4.03;2.00;;;;;;;;;;5063358;28;20209;-66
2024/01/01 13:34:57;;;;;;;2.93;1.27;;;;;;;;;;5067298;28;20197;-66
2024/01/01 13:37:25;;;;;;;4.37;2.20;;;;;;;;;;5059749;28;20220;-69
2024/01/01 13:39:53;;;;;;;21.87;10.20;;;;;;;;;;5055265;28;20293;-64
2024/01/01 13:42:20;;;;;;;7.23;3.17;;;;;;;;;;5041230;28;20263;-66
2024/01/01 13:44:48;;;;;;;9.60;2.10;;;;;;;;;;5064768;28;20209;-69
2024/01/01 13:47:15;;;;;;;4.60;1.80;;;;;;;;;;5066854;28;20271;-66
2024/01/01 13:49:42;;;;;;;7.97;1.93;;;;;;;;;;5063667;28;20218;-67
2024/01/01 13:52:09;;;;;;;5.27;1.80;;;;;;;;;;5068631;28;20205;-67
2024/01/01 13:54:37;;;;;;;6.30;1.70;;;;;;;;;;5087105;28;20193;-65
2024/01/01 13:57:05;;;;;;;3.83;1.53;;;;;;;;;;5054142;28;20292;-65
2024/01/01 13:59:32;;;;;;;5.67;1.67;;;;;;;;;;5059301;28;20300;-68
2024/01/01 14:02:01;;;;;;;5.60;1.80;;;;;;;;;;5061801;28;20197;-66
2024/01/01 14:04:30;;;;;;;3.47;1.80;;;;;;;;;;5062014;28;20213;-64
2024/01/01 14:06:57;;;;;;;8.30;1.90;;;;;;;;;;5064965;28;20279;-64
2024/01/01 14:09:25;;;;;;;7.13;1.63;;;;;;;;;;5063714;28;20225;-65
2024/01/01 14:11:52;;;;;;;4.67;1.70;;;;;;;;;;5063033;28;20752;-66
2024/01/01 14:14:20;;;;;;;3.63;1.60;;;;;;;;;;5056328;28;20221;-65
2024/01/01 14:16:48;;;;;;;6.20;2.47;;;;;;;;;;5057439;28;20235;-66
2024/01/01 14:19:16;;;;;;;5.00;1.60;;;;;;;;;;5060419;28;20235;-64
2024/01/01 14:21:43;;;;;;;6.13;1.87;;;;;;;;;;5068614;28;20613;-67
2024/01/01 14:24:11;;;;;;;6.87;1.57;;;;;;;;;;5060739;28;20259;-67
2024/01/01 14:26:38;;;;;;;9.50;2.90;;;;;;;;;;5065877;28;20212;-66
2024/01/01 14:29:05;;;;;;;4.43;2.63;;;;;;;;;;5060178;28;20212;-65
2024/01/01 14:31:33;;;;;;;4.57;1.60;;;;;;;;;;5061404;28;20296;-65
2024/01/01 14:34:00;;;;;;;3.27;1.47;;;;;;;;;;5060788;28;20777;-64
2024/01/01 14:36:27;;;;;;;4.13;1.30;;;;;;;;;;5061335;28;20208;-64
2024/01/01 14:38:55;;;;;;;4.20;1.73;;;;;;;;;;5063985;28;20224;-67
2024/01/01 14:41:23;;;;;;;8.13;1.90;;;;;;;;;;5062081;28;20205;-65
2024/01/01 14:43:51;;;;;;;3.47;1.70;;;;;;;;;;5060658;28;20208;-68